createdAt,value
2023-08-06T00:01:54.910Z,4.47
2023-08-06T00:04:21.538Z,5.07
2023-08-06T00:06:48.022Z,4.93
2023-08-06T00:09:14.585Z,4.78
2023-08-06T00:11:41.027Z,4.75
2023-08-06T00:14:07.511Z,4.50
2023-08-06T00:16:34.029Z,5.97
2023-08-06T00:19:00.534Z,5.85
2023-08-06T00:21:27.012Z,4.20
2023-08-06T00:23:53.449Z,4.15
2023-08-06T00:26:19.918Z,4.53
2023-08-06T00:28:46.398Z,4.50
2023-08-06T00:31:12.930Z,4.95
2023-08-06T00:33:39.426Z,4.97
2023-08-06T00:36:05.895Z,4.15
2023-08-06T00:38:32.404Z,6.35
2023-08-06T00:40:58.883Z,5.70
2023-08-06T00:43:25.330Z,5.43
2023-08-06T00:45:51.809Z,5.38
2023-08-06T00:48:18.245Z,5.38
2023-08-06T00:50:44.847Z,5.13
2023-08-06T00:53:11.326Z,7.25
2023-08-06T00:55:38.234Z,5.72
2023-08-06T00:58:04.712Z,5.32
2023-08-06T01:00:31.200Z,5.38
2023-08-06T01:02:57.764Z,5.07
2023-08-06T01:05:24.267Z,4.50
2023-08-06T01:07:50.700Z,4.32
2023-08-06T01:10:17.173Z,5.45
2023-08-06T01:12:43.886Z,5.00
2023-08-06T01:15:10.379Z,5.32
2023-08-06T01:17:36.941Z,5.60
2023-08-06T01:20:03.403Z,4.63
2023-08-06T01:22:29.859Z,5.00
2023-08-06T01:24:56.279Z,4.68
2023-08-06T01:27:22.816Z,4.93
2023-08-06T01:29:49.316Z,4.22
2023-08-06T01:32:15.789Z,5.03
2023-08-06T01:34:42.284Z,4.40
2023-08-06T01:37:08.749Z,5.85
2023-08-06T01:39:35.229Z,5.53
2023-08-06T01:42:01.683Z,5.82
2023-08-06T01:44:28.113Z,5.75
2023-08-06T01:46:54.722Z,5.63
2023-08-06T01:49:21.204Z,5.53
2023-08-06T01:51:47.637Z,5.47
2023-08-06T01:54:14.107Z,4.70
2023-08-06T01:56:40.555Z,5.10
2023-08-06T01:59:07.141Z,4.45
2023-08-06T02:01:33.635Z,4.75
2023-08-06T02:04:00.125Z,5.47
2023-08-06T02:06:26.974Z,5.03
2023-08-06T02:08:53.520Z,5.25
2023-08-06T02:11:19.994Z,6.03
2023-08-06T02:13:46.497Z,4.45
2023-08-06T02:16:12.960Z,4.18
2023-08-06T02:18:39.463Z,4.35
2023-08-06T02:21:05.943Z,4.60
2023-08-06T02:23:32.396Z,5.40
2023-08-06T02:25:58.847Z,5.22
2023-08-06T02:28:25.275Z,5.25
2023-08-06T02:30:51.773Z,3.72
2023-08-06T02:33:18.221Z,4.72
2023-08-06T02:35:44.657Z,4.10
2023-08-06T02:38:11.101Z,3.92
2023-08-06T02:40:37.556Z,3.28
2023-08-06T02:43:04.050Z,4.15
2023-08-06T02:45:30.623Z,4.22
2023-08-06T02:47:57.146Z,4.22
2023-08-06T02:50:23.697Z,4.10
2023-08-06T02:52:50.154Z,3.22
2023-08-06T02:55:16.614Z,5.25
2023-08-06T02:57:43.113Z,4.20
2023-08-06T03:00:09.547Z,3.72
2023-08-06T03:02:36.102Z,3.70
2023-08-06T03:05:02.609Z,4.38
2023-08-06T03:07:29.136Z,4.50
2023-08-06T03:09:55.914Z,4.75
2023-08-06T03:12:22.415Z,4.20
2023-08-06T03:14:48.896Z,3.70
2023-08-06T03:17:15.346Z,4.90
2023-08-06T03:19:41.774Z,4.13
2023-08-06T03:22:08.247Z,4.43
2023-08-06T03:24:34.747Z,4.38
2023-08-06T03:27:01.227Z,3.88
2023-08-06T03:29:27.759Z,4.60
2023-08-06T03:31:54.429Z,3.92
2023-08-06T03:34:20.937Z,4.82
2023-08-06T03:36:47.470Z,4.72
2023-08-06T03:39:13.932Z,6.10
2023-08-06T03:41:40.386Z,5.43
2023-08-06T03:44:06.957Z,4.32
2023-08-06T03:46:33.449Z,4.93
2023-08-06T03:48:59.965Z,4.72
2023-08-06T03:51:26.441Z,4.70
2023-08-06T03:53:52.895Z,4.65
2023-08-06T03:56:19.355Z,4.65
2023-08-06T03:58:45.841Z,4.70
2023-08-06T04:01:12.370Z,4.78
2023-08-06T04:03:38.855Z,3.67
2023-08-06T04:06:05.309Z,4.85
2023-08-06T04:08:31.744Z,5.90
2023-08-06T04:10:58.179Z,4.25
2023-08-06T04:13:24.617Z,5.53
2023-08-06T04:15:51.093Z,5.13
2023-08-06T04:18:17.568Z,3.45
2023-08-06T04:20:44.042Z,5.82
2023-08-06T04:23:10.526Z,4.95
2023-08-06T04:25:36.954Z,4.25
2023-08-06T04:28:03.492Z,5.22
2023-08-06T04:30:29.967Z,4.63
2023-08-06T04:32:56.475Z,4.20
2023-08-06T04:35:22.989Z,5.82
2023-08-06T04:37:49.437Z,4.60
2023-08-06T04:40:15.886Z,4.88
2023-08-06T04:42:42.336Z,3.65
2023-08-06T04:45:08.769Z,4.57
2023-08-06T04:47:35.313Z,4.32
2023-08-06T04:50:01.770Z,5.05
2023-08-06T04:52:28.245Z,4.28
2023-08-06T04:54:54.711Z,4.90
2023-08-06T04:57:21.152Z,4.13
2023-08-06T04:59:47.610Z,4.15
2023-08-06T05:02:14.097Z,4.32
2023-08-06T05:04:40.583Z,4.63
2023-08-06T05:07:07.066Z,4.18
2023-08-06T05:09:33.562Z,4.68
2023-08-06T05:12:00.047Z,5.03
2023-08-06T05:14:26.482Z,5.40
2023-08-06T05:16:52.961Z,5.13
2023-08-06T05:19:19.395Z,4.75
2023-08-06T05:21:45.844Z,4.60
2023-08-06T05:24:12.329Z,4.45
2023-08-06T05:26:38.818Z,4.75
2023-08-06T05:29:05.316Z,5.72
2023-08-06T05:31:31.820Z,6.25
2023-08-06T05:33:58.287Z,4.88
2023-08-06T05:36:24.750Z,4.80
2023-08-06T05:38:51.164Z,4.85
2023-08-06T05:41:17.645Z,4.90
2023-08-06T05:43:44.122Z,4.85
2023-08-06T05:46:10.642Z,4.70
2023-08-06T05:48:37.163Z,5.90
2023-08-06T05:51:03.646Z,5.53
2023-08-06T05:53:30.114Z,4.95
2023-08-06T05:55:56.611Z,4.65
2023-08-06T05:58:23.039Z,5.68
2023-08-06T06:00:49.518Z,5.00
2023-08-06T06:03:16.001Z,5.22
2023-08-06T06:05:42.474Z,6.25
2023-08-06T06:08:09.052Z,5.22
2023-08-06T06:10:35.553Z,7.47
2023-08-06T06:13:02.169Z,5.88
2023-08-06T06:15:28.613Z,6.05
2023-08-06T06:17:55.089Z,5.40
2023-08-06T06:20:21.585Z,5.03
2023-08-06T06:22:48.047Z,6.60
2023-08-06T06:25:14.558Z,5.30
2023-08-06T06:27:41.052Z,5.20
2023-08-06T06:30:07.485Z,5.47
2023-08-06T06:32:33.964Z,4.60
2023-08-06T06:35:00.459Z,5.18
2023-08-06T06:37:27.044Z,6.43
2023-08-06T06:39:53.479Z,6.05
2023-08-06T06:42:19.909Z,4.70
2023-08-06T06:44:46.377Z,5.40
2023-08-06T06:47:12.808Z,5.00
2023-08-06T06:49:39.286Z,5.15
2023-08-06T06:52:05.778Z,5.05
2023-08-06T06:54:32.244Z,5.72
2023-08-06T06:56:58.762Z,5.85
2023-08-06T06:59:25.229Z,4.40
2023-08-06T07:01:52.130Z,5.63
2023-08-06T07:04:18.806Z,5.13
2023-08-06T07:06:45.299Z,6.13
2023-08-06T07:09:11.752Z,4.95
2023-08-06T07:11:38.212Z,5.38
2023-08-06T07:14:04.653Z,4.55
2023-08-06T07:16:31.092Z,4.25
2023-08-06T07:18:57.590Z,5.40
2023-08-06T07:21:24.082Z,5.43
2023-08-06T07:23:50.605Z,5.38
2023-08-06T07:26:17.095Z,5.20
2023-08-06T07:28:43.537Z,4.60
2023-08-06T07:31:10.127Z,5.13
2023-08-06T07:33:36.582Z,5.60
2023-08-06T07:36:03.008Z,4.60
2023-08-06T07:38:29.451Z,5.10
2023-08-06T07:40:56.109Z,5.53
2023-08-06T07:43:22.574Z,4.47
2023-08-06T07:45:49.054Z,4.90
2023-08-06T07:48:15.534Z,4.22
2023-08-06T07:50:42.024Z,6.70
2023-08-06T07:53:08.510Z,5.38
2023-08-06T07:55:34.983Z,5.75
2023-08-06T07:58:01.433Z,5.10
2023-08-06T08:00:27.915Z,5.25
2023-08-06T08:02:54.510Z,5.40
2023-08-06T08:05:21.057Z,5.43
2023-08-06T08:07:47.543Z,5.57
2023-08-06T08:10:14.160Z,6.78
2023-08-06T08:12:40.634Z,5.43
2023-08-06T08:15:07.112Z,6.03
2023-08-06T08:17:33.606Z,5.65
2023-08-06T08:20:00.149Z,5.22
2023-08-06T08:22:26.852Z,6.25
2023-08-06T08:24:53.472Z,4.75
2023-08-06T08:27:20.053Z,5.05
2023-08-06T08:29:46.561Z,4.65
2023-08-06T08:32:13.040Z,6.40
2023-08-06T08:34:39.507Z,6.38
2023-08-06T08:37:05.942Z,5.80
2023-08-06T08:39:32.385Z,6.72
2023-08-06T08:41:58.816Z,7.75
2023-08-06T08:44:25.265Z,7.72
2023-08-06T08:46:51.734Z,6.82
2023-08-06T08:49:18.207Z,6.95
2023-08-06T08:51:44.885Z,7.20
2023-08-06T08:54:11.342Z,7.95
2023-08-06T08:56:37.756Z,6.97
2023-08-06T08:59:04.238Z,6.43
2023-08-06T09:01:30.700Z,6.70
2023-08-06T09:03:57.164Z,7.97
2023-08-06T09:06:23.616Z,7.63
2023-08-06T09:08:50.123Z,6.95
2023-08-06T09:11:16.599Z,5.75
2023-08-06T09:13:43.093Z,5.55
2023-08-06T09:16:09.599Z,6.97
2023-08-06T09:18:36.148Z,7.63
2023-08-06T09:21:02.619Z,7.35
2023-08-06T09:23:29.145Z,5.97
2023-08-06T09:25:55.620Z,7.25
2023-08-06T09:28:22.145Z,5.10
2023-08-06T09:30:48.578Z,6.25
2023-08-06T09:33:15.161Z,5.43
2023-08-06T09:35:41.642Z,6.00
2023-08-06T09:38:08.074Z,5.53
2023-08-06T09:40:34.547Z,7.00
2023-08-06T09:43:03.411Z,8.27
2023-08-06T09:45:31.685Z,6.82
2023-08-06T09:47:58.232Z,6.28
2023-08-06T09:50:24.755Z,5.35
2023-08-06T09:52:51.182Z,5.47
2023-08-06T09:55:17.610Z,6.50
2023-08-06T09:57:44.144Z,6.88
2023-08-06T10:00:10.576Z,6.10
2023-08-06T10:02:37.105Z,6.25
2023-08-06T10:05:03.631Z,6.72
2023-08-06T10:07:30.083Z,5.90
2023-08-06T10:09:56.509Z,6.10
2023-08-06T10:12:22.984Z,6.13
2023-08-06T10:14:49.465Z,6.30
2023-08-06T10:17:15.897Z,5.72
2023-08-06T10:19:42.373Z,7.28
2023-08-06T10:22:08.860Z,6.63
2023-08-06T10:24:35.339Z,6.95
2023-08-06T10:27:01.789Z,6.35
2023-08-06T10:29:28.287Z,6.28
2023-08-06T10:31:55.049Z,5.93
2023-08-06T10:34:21.820Z,7.88
2023-08-06T10:36:48.271Z,6.32
2023-08-06T10:39:25.775Z,5.20
2023-08-06T10:41:59.944Z,10.73
2023-08-06T10:44:32.268Z,8.48
2023-08-06T10:46:59.342Z,5.30
2023-08-06T10:49:26.061Z,5.60
2023-08-06T10:51:52.712Z,5.28
2023-08-06T10:54:19.498Z,5.43
2023-08-06T10:56:45.992Z,5.20
2023-08-06T10:59:12.445Z,4.53
2023-08-06T11:01:38.899Z,9.48
2023-08-06T11:04:05.350Z,5.20
2023-08-06T11:06:31.799Z,5.38
2023-08-06T11:08:59.375Z,5.22
2023-08-06T11:11:26.143Z,6.03
2023-08-06T11:13:52.653Z,6.22
2023-08-06T11:16:19.203Z,5.40
2023-08-06T11:18:45.665Z,5.57
2023-08-06T11:21:12.136Z,4.35
2023-08-06T11:23:38.571Z,4.50
2023-08-06T11:26:05.000Z,5.00
2023-08-06T11:28:31.434Z,6.78
2023-08-06T11:30:57.975Z,3.58
2023-08-06T11:33:24.542Z,4.50
2023-08-06T11:35:51.026Z,3.28
2023-08-06T11:38:17.500Z,4.13
2023-08-06T11:40:44.180Z,4.47
2023-08-06T11:43:10.615Z,4.28
2023-08-06T11:45:37.093Z,4.13
2023-08-06T11:48:03.572Z,4.60
2023-08-06T11:50:30.040Z,4.95
2023-08-06T11:52:56.513Z,4.07
2023-08-06T11:55:22.972Z,9.30
2023-08-06T11:57:49.458Z,6.53
2023-08-06T12:00:15.972Z,4.45
2023-08-06T12:02:42.394Z,15.68
2023-08-06T12:05:08.845Z,3.72
2023-08-06T12:07:35.272Z,4.07
2023-08-06T12:10:01.806Z,4.65
2023-08-06T12:12:28.293Z,5.50
2023-08-06T12:14:54.801Z,8.00
2023-08-06T12:17:21.357Z,4.63
2023-08-06T12:19:47.861Z,4.70
2023-08-06T12:22:14.354Z,3.65
2023-08-06T12:24:40.868Z,4.82
2023-08-06T12:27:07.420Z,5.68
2023-08-06T12:29:33.858Z,4.20
2023-08-06T12:32:00.289Z,4.15
2023-08-06T12:34:29.184Z,3.83
2023-08-06T12:36:57.736Z,4.10
2023-08-06T12:39:24.238Z,5.15
2023-08-06T12:41:50.690Z,4.13
2023-08-06T12:44:17.194Z,4.43
2023-08-06T12:46:43.642Z,4.57
2023-08-06T12:49:10.163Z,4.85
2023-08-06T12:51:36.637Z,4.38
2023-08-06T12:54:03.173Z,5.15
2023-08-06T12:56:29.702Z,4.75
2023-08-06T12:58:56.150Z,5.68
2023-08-06T13:01:22.702Z,4.65
2023-08-06T13:03:49.277Z,4.47
2023-08-06T13:06:15.834Z,5.53
2023-08-06T13:08:42.358Z,5.20
2023-08-06T13:11:08.802Z,5.57
2023-08-06T13:13:35.231Z,5.13
2023-08-06T13:16:01.745Z,4.22
2023-08-06T13:18:28.209Z,3.50
2023-08-06T13:20:54.693Z,4.43
2023-08-06T13:23:21.170Z,3.95
2023-08-06T13:25:47.612Z,3.95
2023-08-06T13:28:14.325Z,4.32
2023-08-06T13:30:40.781Z,5.22
2023-08-06T13:33:07.278Z,6.20
2023-08-06T13:35:33.750Z,5.47
2023-08-06T13:38:00.210Z,5.88
2023-08-06T13:40:26.628Z,5.60
2023-08-06T13:42:53.262Z,7.68
2023-08-06T13:45:19.704Z,5.53
2023-08-06T13:47:46.231Z,6.55
2023-08-06T13:50:12.789Z,7.40
2023-08-06T13:52:39.368Z,10.45
2023-08-06T13:55:05.857Z,7.45
2023-08-06T13:57:32.334Z,7.53
2023-08-06T13:59:58.829Z,7.53
2023-08-06T14:02:25.666Z,6.40
2023-08-06T14:04:52.385Z,5.68
2023-08-06T14:07:18.800Z,5.47
2023-08-06T14:09:45.307Z,5.63
2023-08-06T14:12:11.779Z,5.65
2023-08-06T14:14:38.228Z,4.28
2023-08-06T14:17:05.108Z,3.92
2023-08-06T14:19:31.904Z,4.15
2023-08-06T14:21:58.394Z,4.47
2023-08-06T14:24:24.895Z,4.90
2023-08-06T14:26:51.384Z,4.50
2023-08-06T14:29:17.832Z,4.13
2023-08-06T14:31:44.400Z,6.90
2023-08-06T14:34:10.926Z,4.10
2023-08-06T14:36:37.528Z,4.45
2023-08-06T14:39:04.008Z,4.05
2023-08-06T14:41:30.491Z,3.70
2023-08-06T14:43:57.019Z,4.25
2023-08-06T14:46:23.515Z,3.38
2023-08-06T14:48:49.975Z,4.03
2023-08-06T14:51:16.454Z,3.53
2023-08-06T14:53:42.970Z,3.17
2023-08-06T14:56:09.387Z,2.92
2023-08-06T14:58:35.867Z,2.97
2023-08-06T15:01:02.425Z,4.13
2023-08-06T15:03:29.003Z,2.30
2023-08-06T15:05:55.639Z,2.28
2023-08-06T15:08:22.127Z,3.75
2023-08-06T15:10:48.538Z,1.60
2023-08-06T15:13:15.627Z,1.88
2023-08-06T15:15:42.719Z,2.42
2023-08-06T15:18:09.142Z,2.53
2023-08-06T15:20:35.620Z,3.92
2023-08-06T15:23:02.095Z,2.88
2023-08-06T15:25:28.572Z,6.28
2023-08-06T15:27:55.049Z,2.33
2023-08-06T15:30:21.519Z,3.15
2023-08-06T15:32:48.024Z,2.33
2023-08-06T15:35:14.560Z,2.38
2023-08-06T15:37:41.056Z,2.92
2023-08-06T15:40:07.569Z,2.55
2023-08-06T15:42:34.064Z,2.58
2023-08-06T15:45:00.571Z,3.42
2023-08-06T15:47:27.123Z,3.63
2023-08-06T15:49:53.610Z,2.03
2023-08-06T15:52:20.100Z,2.30
2023-08-06T15:54:46.573Z,2.05
2023-08-06T15:57:13.062Z,3.05
2023-08-06T15:59:39.539Z,3.33
2023-08-06T16:02:05.988Z,1.95
2023-08-06T16:04:32.588Z,1.80
2023-08-06T16:06:59.196Z,3.65
2023-08-06T16:09:25.737Z,1.98
2023-08-06T16:11:52.398Z,1.70
2023-08-06T16:14:18.876Z,2.97
2023-08-06T16:16:45.456Z,1.83
2023-08-06T16:19:11.902Z,2.38
2023-08-06T16:21:38.380Z,2.72
2023-08-06T16:24:04.815Z,2.17
2023-08-06T16:26:31.323Z,3.10
2023-08-06T16:28:57.791Z,2.88
2023-08-06T16:31:24.330Z,3.00
2023-08-06T16:33:50.788Z,4.00
2023-08-06T16:36:17.242Z,3.90
2023-08-06T16:38:43.656Z,2.60
2023-08-06T16:41:10.098Z,4.30
2023-08-06T16:43:36.580Z,2.50
2023-08-06T16:46:03.097Z,3.20
2023-08-06T16:48:29.572Z,3.22
2023-08-06T16:50:56.071Z,4.30
2023-08-06T16:53:22.608Z,2.58
2023-08-06T16:55:49.052Z,3.25
2023-08-06T16:58:15.561Z,4.75
2023-08-06T17:00:42.008Z,3.30
2023-08-06T17:03:08.515Z,3.78
2023-08-06T17:05:35.070Z,6.05
2023-08-06T17:08:01.557Z,3.53
2023-08-06T17:10:27.987Z,5.22
2023-08-06T17:13:00.106Z,3.90
2023-08-06T17:15:36.482Z,3.90
2023-08-06T17:18:03.026Z,6.28
2023-08-06T17:20:29.525Z,6.53
2023-08-06T17:22:55.998Z,4.88
2023-08-06T17:25:22.496Z,6.70
2023-08-06T17:27:48.934Z,3.67
2023-08-06T17:30:15.530Z,3.53
2023-08-06T17:32:42.010Z,5.35
2023-08-06T17:35:08.465Z,3.50
2023-08-06T17:37:34.901Z,7.28
2023-08-06T17:40:01.322Z,5.10
2023-08-06T17:42:27.757Z,4.05
2023-08-06T17:44:54.230Z,3.97
2023-08-06T17:47:34.656Z,2.78
2023-08-06T17:50:02.597Z,3.55
2023-08-06T17:52:29.034Z,2.83
2023-08-06T17:54:55.724Z,2.65
2023-08-06T17:57:22.176Z,3.75
2023-08-06T17:59:48.640Z,2.28
2023-08-06T18:02:15.170Z,3.42
2023-08-06T18:04:41.735Z,5.22
2023-08-06T18:07:08.189Z,2.88
2023-08-06T18:09:34.696Z,5.85
2023-08-06T18:12:01.196Z,3.47
2023-08-06T18:14:27.642Z,2.70
2023-08-06T18:16:54.303Z,3.13
2023-08-06T18:19:20.932Z,2.55
2023-08-06T18:21:47.466Z,3.40
2023-08-06T18:24:13.903Z,2.03
2023-08-06T18:26:40.340Z,1.45
2023-08-06T18:29:06.835Z,1.98
2023-08-06T18:31:33.310Z,2.60
2023-08-06T18:33:59.791Z,2.50
2023-08-06T18:36:26.431Z,0.60
2023-08-06T18:38:52.860Z,3.40
2023-08-06T18:41:19.308Z,1.08
2023-08-06T18:43:45.720Z,1.63
2023-08-06T18:46:12.226Z,2.08
2023-08-06T18:48:38.679Z,2.92
2023-08-06T18:51:05.154Z,3.05
2023-08-06T18:53:31.645Z,2.05
2023-08-06T18:55:58.110Z,1.55
2023-08-06T18:58:24.632Z,1.98
2023-08-06T19:00:51.113Z,1.95
2023-08-06T19:03:17.723Z,1.52
2023-08-06T19:05:44.351Z,1.58
2023-08-06T19:08:10.872Z,1.70
2023-08-06T19:10:37.418Z,2.30
2023-08-06T19:13:03.852Z,1.35
2023-08-06T19:15:30.333Z,2.60
2023-08-06T19:17:56.801Z,1.92
2023-08-06T19:20:25.131Z,4.75
2023-08-06T19:22:51.602Z,2.78
2023-08-06T19:25:18.086Z,1.58
2023-08-06T19:27:44.688Z,5.97
2023-08-06T19:30:11.170Z,4.20
2023-08-06T19:32:37.832Z,2.30
2023-08-06T19:35:04.307Z,1.80
2023-08-06T19:37:30.782Z,5.55
2023-08-06T19:39:57.286Z,1.45
2023-08-06T19:42:23.739Z,4.20
2023-08-06T19:44:50.207Z,4.13
2023-08-06T19:47:16.766Z,5.45
2023-08-06T19:49:43.553Z,3.55
2023-08-06T19:52:09.985Z,2.85
2023-08-06T19:54:36.473Z,5.07
2023-08-06T19:57:02.974Z,2.03
2023-08-06T19:59:29.424Z,3.08
2023-08-06T20:01:56.056Z,6.20
2023-08-06T20:04:22.834Z,2.22
2023-08-06T20:06:51.741Z,3.17
2023-08-06T20:09:18.802Z,4.13
2023-08-06T20:11:45.254Z,4.30
2023-08-06T20:14:11.717Z,5.43
2023-08-06T20:16:38.210Z,2.50
2023-08-06T20:19:04.695Z,3.10
2023-08-06T20:21:31.169Z,4.43
2023-08-06T20:23:57.641Z,1.90
2023-08-06T20:26:24.087Z,1.45
2023-08-06T20:28:50.562Z,6.13
2023-08-06T20:31:17.099Z,2.53
2023-08-06T20:33:43.702Z,1.55
2023-08-06T20:36:10.162Z,5.45
2023-08-06T20:38:36.605Z,1.73
2023-08-06T20:41:03.069Z,2.60
2023-08-06T20:43:29.623Z,2.83
2023-08-06T20:45:56.053Z,1.45
2023-08-06T20:48:22.534Z,1.00
2023-08-06T20:50:49.017Z,3.67
2023-08-06T20:53:15.646Z,1.40
2023-08-06T20:55:42.088Z,2.22
2023-08-06T20:58:08.565Z,2.75
2023-08-06T21:00:35.092Z,2.67
2023-08-06T21:03:01.596Z,1.30
2023-08-06T21:05:28.088Z,2.60
2023-08-06T21:07:54.538Z,2.67
2023-08-06T21:10:21.018Z,2.10
2023-08-06T21:12:47.492Z,1.63
2023-08-06T21:15:13.969Z,2.17
2023-08-06T21:17:40.505Z,2.92
2023-08-06T21:20:07.001Z,1.45
2023-08-06T21:22:33.435Z,2.17
2023-08-06T21:24:59.861Z,1.17
2023-08-06T21:27:26.501Z,3.90
2023-08-06T21:29:52.992Z,1.08
2023-08-06T21:32:19.494Z,3.03
2023-08-06T21:34:45.976Z,1.80
2023-08-06T21:37:12.413Z,1.42
2023-08-06T21:39:38.867Z,2.40
2023-08-06T21:42:05.344Z,1.52
2023-08-06T21:44:31.838Z,2.10
2023-08-06T21:46:58.318Z,1.38
2023-08-06T21:49:24.806Z,1.80
2023-08-06T21:51:51.243Z,1.30
2023-08-06T21:54:17.690Z,1.98
2023-08-06T21:56:44.188Z,1.67
2023-08-06T21:59:10.681Z,1.75
2023-08-06T22:01:37.114Z,2.72
2023-08-06T22:04:03.580Z,0.80
2023-08-06T22:06:30.062Z,1.08
2023-08-06T22:08:56.820Z,1.08
2023-08-06T22:11:23.321Z,2.25
2023-08-06T22:13:49.766Z,2.92
2023-08-06T22:16:16.289Z,1.20
2023-08-06T22:18:42.763Z,2.95
2023-08-06T22:21:09.234Z,2.72
2023-08-06T22:23:35.724Z,2.90
2023-08-06T22:26:02.280Z,3.60
2023-08-06T22:28:28.779Z,5.25
2023-08-06T22:30:55.579Z,4.15
2023-08-06T22:33:22.153Z,1.83
2023-08-06T22:35:48.682Z,4.65
2023-08-06T22:38:15.630Z,5.50
2023-08-06T22:40:42.107Z,4.03
2023-08-06T22:43:08.527Z,4.07
2023-08-06T22:45:35.000Z,3.28
2023-08-06T22:48:01.548Z,3.92
2023-08-06T22:50:28.063Z,4.50
2023-08-06T22:52:54.500Z,4.13
2023-08-06T22:55:48.266Z,3.97
2023-08-06T22:58:07.363Z,5.03
2023-08-06T23:00:33.815Z,2.45
2023-08-06T23:03:10.202Z,5.40
2023-08-06T23:05:37.680Z,6.00
2023-08-06T23:08:04.149Z,6.63
2023-08-06T23:10:30.595Z,4.78
2023-08-06T23:12:57.129Z,7.28
2023-08-06T23:15:23.630Z,4.93
2023-08-06T23:17:50.148Z,3.55
2023-08-06T23:20:16.675Z,9.52
2023-08-06T23:22:43.124Z,3.65
2023-08-06T23:25:09.595Z,2.85
2023-08-06T23:27:36.043Z,4.82
2023-08-06T23:30:02.511Z,3.97
2023-08-06T23:32:28.970Z,3.10
2023-08-06T23:34:55.798Z,2.08
2023-08-06T23:37:22.291Z,2.35
2023-08-06T23:39:48.815Z,2.05
2023-08-06T23:42:15.312Z,1.95
2023-08-06T23:44:41.755Z,4.03
2023-08-06T23:47:08.206Z,2.20
2023-08-06T23:49:34.639Z,1.92
2023-08-06T23:52:01.128Z,2.53
2023-08-06T23:54:27.640Z,1.42
2023-08-06T23:56:54.100Z,2.63
2023-08-06T23:59:20.604Z,1.80
